| Date | Time | Temp. (oF) | Dew Point (oF) | Rel. Hum. (%) | Press. (in.) | Wind Dir. | Wind Speed (mph) | Hourly Rainfall (in.) |
|
|---|---|---|---|---|---|---|---|---|---|
| 1 | 02/21 | 00:00 | 54 | 51 | 91 | 29.76 | S | 6 | 0.00 |
| 2 | 02/20 | 23:00 | 54 | 51 | 91 | 29.76 | SSE | 14 | 0.00 |
| 3 | 02/20 | 22:00 | 54 | 51 | 91 | 29.78 | S | 12 | 0.00 |
| 4 | 02/20 | 21:00 | 56 | 52 | 87 | 29.79 | S | 15 | 0.00 |
| 5 | 02/20 | 20:00 | 57 | 50 | 78 | 29.79 | SSW | 10 | 0.00 |
| 6 | 02/20 | 19:00 | 58 | 49 | 73 | 29.81 | S | 14 | 0.00 |
| 7 | 02/20 | 18:00 | 58 | 48 | 71 | 29.82 | S | 9 | 0.00 |
| 8 | 02/20 | 17:00 | 58 | 47 | 69 | 29.82 | SSE | 5 | 0.00 |
| 9 | 02/20 | 16:00 | 58 | 45 | 64 | 29.87 | SSE | 18 | 0.00 |
| 10 | 02/20 | 15:00 | 59 | 45 | 60 | 29.88 | SSE | 12 | 0.00 |
| 11 | 02/20 | 14:00 | 58 | 44 | 60 | 29.91 | SSW | 10 | 0.00 |
| 12 | 02/20 | 13:00 | 56 | 40 | 57 | 29.94 | SSE | 16 | 0.00 |
| 13 | 02/20 | 12:00 | 53 | 36 | 53 | 29.97 | SSW | 12 | 0.00 |
| 14 | 02/20 | 11:00 | 50 | 32 | 50 | 30.00 | SSW | 5 | 0.00 |
| 15 | 02/20 | 10:00 | 46 | 31 | 57 | 30.04 | SSE | 3 | 0.00 |
| 16 | 02/20 | 09:00 | 46 | 33 | 61 | 30.06 | SSE | 2 | 0.00 |
| 17 | 02/20 | 08:00 | 43 | 32 | 65 | 30.09 | S | 6 | 0.00 |
| 18 | 02/20 | 07:00 | 40 | 30 | 70 | 30.04 | ENE | 10 | 0.00 |
| 19 | 02/20 | 06:00 | 41 | 29 | 64 | 30.11 | ESE | 3 | 0.00 |
| 20 | 02/20 | 05:00 | 42 | 29 | 61 | 30.12 | E | 1 | 0.00 |
| 21 | 02/20 | 04:00 | 43 | 28 | 57 | 30.13 | ESE | 1 | 0.00 |
| 22 | 02/20 | 03:00 | 44 | 28 | 54 | 30.14 | SSE | 4 | 0.00 |
| 23 | 02/20 | 02:00 | 44 | 28 | 54 | 30.14 | ESE | 3 | 0.00 |
| 24 | 02/20 | 01:00 | 45 | 27 | 51 | 30.15 | SE | 5 | 0.00 |